MSC Aniello — 3FYW9 — position and weather

sailwx.info

Track history (hours):
 
Tides and Currents Weather Stations Pressure Air Temp Water Temp Dewpoint Dewpoint Depression Visibility Wind Speed Wind Dir Waves Ship Positions

MSC Aniello

Last reported at 2018-Apr-21 08:13 UTC. Time now 2018-Apr-21 15:32 UTC.
Position N 38°07' W 024°03'.

Length 259 m; draft 10.6 m.

Type: Ship (hazmat cat D). MMSI: 357506000.

Date/timePositionNaut miles runAvg speedWind from/ knotsBaromVisibWave heightAir tempDewpointWater temp
2018-Apr-21 08:13N 38°07' W 024°03'717.2
2018-Apr-21 07:47N 38°08' W 024°12'517.1
2018-Apr-21 07:30N 38°08' W 024°18'816.8
2018-Apr-21 07:00N 38°08' W 024°29'917.1
2018-Apr-21 06:30N 38°08' W 024°40'917.4
2018-Apr-21 06:00N 38°09' W 024°51'917.4
2018-Apr-21 05:30N 38°09' W 025°02'917.2
2018-Apr-21 05:00N 38°09' W 025°13'917.1
2018-Apr-21 04:30N 38°08' W 025°24'817.0
2018-Apr-21 04:00N 38°08' W 025°34'917.1
2018-Apr-21 03:30N 38°08' W 025°45'1216.8
2018-Apr-21 02:47N 38°08' W 026°01'816.7
2018-Apr-21 02:19N 38°08' W 026°10'3116.9
2018-Apr-21 00:31N 38°08' W 026°49'116.8
2018-Apr-21 00:28N 38°08' W 026°50'817.0
2018-Apr-21 00:00N 38°07' W 027°00'816.9
2018-Apr-20 23:30N 38°07' W 027°11'917.1
2018-Apr-20 23:00N 38°07' W 027°22'817.0
2018-Apr-20 22:30N 38°07' W 027°33'816.8
2018-Apr-20 22:00N 38°06' W 027°43'817.0
2018-Apr-20 21:31N 38°06' W 027°54'917.4
2018-Apr-20 21:00N 38°06' W 028°05'917.5
2018-Apr-20 20:30N 38°06' W 028°16'817.0
2018-Apr-20 20:01N 38°06' W 028°27'916.9
2018-Apr-20 19:30N 38°06' W 028°38'817.0
2018-Apr-20 19:00N 38°06' W 028°49'917.1
2018-Apr-20 18:30N 38°06' W 028°60'816.9
2018-Apr-20 18:00N 38°06' W 029°10'917.1
2018-Apr-20 17:30N 38°06' W 029°21'918.2
2018-Apr-20 17:00N 38°06' W 029°33'917.8
2018-Apr-20 16:29N 38°05' W 029°45'817.7
2018-Apr-20 16:00N 38°05' W 029°55'917.6
2018-Apr-20 15:28N 38°06' W 030°07'1017.6
2018-Apr-20 14:55N 38°06' W 030°20'  
2018-Apr-15 14:19N 46°04' W 073°03'411.7
2018-Apr-15 14:00N 46°03' W 073°09'  
2018-Apr-12 15:45N 46°01' W 073°10'2 9.9
2018-Apr-12 15:30N 46°03' W 073°08'5 9.9
2018-Apr-12 15:00N 46°05' W 073°01'88 8.8
2018-Apr-12 04:58N 46°49' W 071°12'  
Track history (hours):
 
Tides and Currents Weather Stations Pressure Air Temp Water Temp Dewpoint Dewpoint Depression Visibility Wind Speed Wind Dir Waves Ship Positions

MSC Aniello

Last reported at 2018-Apr-21 08:13 UTC. Time now 2018-Apr-21 15:32 UTC.
Position N 38°07' W 024°03'.

Length 259 m; draft 10.6 m.

Type: Ship (hazmat cat D). MMSI: 357506000.

Date/timePositionNaut miles runAvg speedWind from/ knotsBaromVisibWave heightAir tempDewpointWater temp
2018-Apr-21 08:13N 38°07' W 024°03'717.2
2018-Apr-21 07:47N 38°08' W 024°12'517.1
2018-Apr-21 07:30N 38°08' W 024°18'816.8
2018-Apr-21 07:00N 38°08' W 024°29'917.1
2018-Apr-21 06:30N 38°08' W 024°40'917.4
2018-Apr-21 06:00N 38°09' W 024°51'917.4
2018-Apr-21 05:30N 38°09' W 025°02'917.2
2018-Apr-21 05:00N 38°09' W 025°13'917.1
2018-Apr-21 04:30N 38°08' W 025°24'817.0
2018-Apr-21 04:00N 38°08' W 025°34'917.1
2018-Apr-21 03:30N 38°08' W 025°45'1216.8
2018-Apr-21 02:47N 38°08' W 026°01'816.7
2018-Apr-21 02:19N 38°08' W 026°10'3116.9
2018-Apr-21 00:31N 38°08' W 026°49'116.8
2018-Apr-21 00:28N 38°08' W 026°50'817.0
2018-Apr-21 00:00N 38°07' W 027°00'816.9
2018-Apr-20 23:30N 38°07' W 027°11'917.1
2018-Apr-20 23:00N 38°07' W 027°22'817.0
2018-Apr-20 22:30N 38°07' W 027°33'816.8
2018-Apr-20 22:00N 38°06' W 027°43'817.0
2018-Apr-20 21:31N 38°06' W 027°54'917.4
2018-Apr-20 21:00N 38°06' W 028°05'917.5
2018-Apr-20 20:30N 38°06' W 028°16'817.0
2018-Apr-20 20:01N 38°06' W 028°27'916.9
2018-Apr-20 19:30N 38°06' W 028°38'817.0
2018-Apr-20 19:00N 38°06' W 028°49'917.1
2018-Apr-20 18:30N 38°06' W 028°60'816.9
2018-Apr-20 18:00N 38°06' W 029°10'917.1
2018-Apr-20 17:30N 38°06' W 029°21'918.2
2018-Apr-20 17:00N 38°06' W 029°33'917.8
2018-Apr-20 16:29N 38°05' W 029°45'817.7
2018-Apr-20 16:00N 38°05' W 029°55'917.6
2018-Apr-20 15:28N 38°06' W 030°07'1017.6
2018-Apr-20 14:55N 38°06' W 030°20'  
2018-Apr-15 14:19N 46°04' W 073°03'411.7
2018-Apr-15 14:00N 46°03' W 073°09'  
2018-Apr-12 15:45N 46°01' W 073°10'2 9.9
2018-Apr-12 15:30N 46°03' W 073°08'5 9.9
2018-Apr-12 15:00N 46°05' W 073°01'88 8.8
2018-Apr-12 04:58N 46°49' W 071°12'  

Dump ship's entire track history